sensor_id;sensor_type;location;lat;lon;timestamp;temperature;humidity
52415;DHT22;38340;52.964;6.086;2024-03-02T00:02:06;7.40;99.90
52415;DHT22;38340;52.964;6.086;2024-03-02T00:04:32;7.30;99.90
52415;DHT22;38340;52.964;6.086;2024-03-02T00:06:57;7.40;99.90
52415;DHT22;38340;52.964;6.086;2024-03-02T00:09:23;7.40;99.90
52415;DHT22;38340;52.964;6.086;2024-03-02T00:11:49;7.40;99.90
52415;DHT22;38340;52.964;6.086;2024-03-02T00:14:16;7.40;99.90
52415;DHT22;38340;52.964;6.086;2024-03-02T00:16:42;7.40;99.90
52415;DHT22;38340;52.964;6.086;2024-03-02T00:19:09;7.40;99.90
52415;DHT22;38340;52.964;6.086;2024-03-02T00:21:35;7.40;99.90
52415;DHT22;38340;52.964;6.086;2024-03-02T00:24:02;7.40;99.90
52415;DHT22;38340;52.964;6.086;2024-03-02T00:26:32;7.50;99.90
52415;DHT22;38340;52.964;6.086;2024-03-02T00:28:59;7.50;99.90
52415;DHT22;38340;52.964;6.086;2024-03-02T00:31:26;7.60;99.90
52415;DHT22;38340;52.964;6.086;2024-03-02T00:33:51;7.60;99.90
52415;DHT22;38340;52.964;6.086;2024-03-02T00:36:27;7.60;99.90
52415;DHT22;38340;52.964;6.086;2024-03-02T00:38:54;7.60;99.90
52415;DHT22;38340;52.964;6.086;2024-03-02T00:41:30;7.70;99.90
52415;DHT22;38340;52.964;6.086;2024-03-02T00:44:06;7.70;99.90
52415;DHT22;38340;52.964;6.086;2024-03-02T00:46:36;7.70;99.90
52415;DHT22;38340;52.964;6.086;2024-03-02T00:49:11;7.80;99.90
52415;DHT22;38340;52.964;6.086;2024-03-02T00:51:39;7.80;99.90
52415;DHT22;38340;52.964;6.086;2024-03-02T00:54:07;7.80;99.90
52415;DHT22;38340;52.964;6.086;2024-03-02T00:56:34;7.80;99.90
52415;DHT22;38340;52.964;6.086;2024-03-02T00:59:00;7.80;99.90
52415;DHT22;38340;52.964;6.086;2024-03-02T01:01:26;7.80;99.90
52415;DHT22;38340;52.964;6.086;2024-03-02T01:03:52;7.90;99.90
52415;DHT22;38340;52.964;6.086;2024-03-02T01:06:18;7.90;99.90
52415;DHT22;38340;52.964;6.086;2024-03-02T01:08:44;7.90;99.90
52415;DHT22;38340;52.964;6.086;2024-03-02T01:11:10;7.90;99.90
52415;DHT22;38340;52.964;6.086;2024-03-02T01:13:36;7.80;99.90
52415;DHT22;38340;52.964;6.086;2024-03-02T01:16:02;7.80;99.90
52415;DHT22;38340;52.964;6.086;2024-03-02T01:18:29;7.90;99.90
52415;DHT22;38340;52.964;6.086;2024-03-02T01:20:56;7.80;99.90
52415;DHT22;38340;52.964;6.086;2024-03-02T01:23:22;7.80;99.90
52415;DHT22;38340;52.964;6.086;2024-03-02T01:25:48;7.80;99.90
52415;DHT22;38340;52.964;6.086;2024-03-02T01:28:14;7.80;99.90
52415;DHT22;38340;52.964;6.086;2024-03-02T01:30:40;7.80;99.90
52415;DHT22;38340;52.964;6.086;2024-03-02T01:33:06;7.90;99.90
52415;DHT22;38340;52.964;6.086;2024-03-02T01:35:32;7.90;99.90
52415;DHT22;38340;52.964;6.086;2024-03-02T01:37:58;7.90;99.90
52415;DHT22;38340;52.964;6.086;2024-03-02T01:40:24;7.90;99.90
52415;DHT22;38340;52.964;6.086;2024-03-02T01:42:54;8.00;99.90
52415;DHT22;38340;52.964;6.086;2024-03-02T01:45:21;7.90;99.90
52415;DHT22;38340;52.964;6.086;2024-03-02T01:47:47;8.00;99.90
52415;DHT22;38340;52.964;6.086;2024-03-02T01:50:13;8.00;99.90
52415;DHT22;38340;52.964;6.086;2024-03-02T01:52:39;8.00;99.90
52415;DHT22;38340;52.964;6.086;2024-03-02T01:55:05;8.00;99.90
52415;DHT22;38340;52.964;6.086;2024-03-02T01:57:34;8.00;99.90
52415;DHT22;38340;52.964;6.086;2024-03-02T02:00:01;8.00;99.90
52415;DHT22;38340;52.964;6.086;2024-03-02T02:02:27;8.00;99.90
52415;DHT22;38340;52.964;6.086;2024-03-02T02:04:52;8.00;99.90
52415;DHT22;38340;52.964;6.086;2024-03-02T02:07:18;8.00;99.90
52415;DHT22;38340;52.964;6.086;2024-03-02T02:09:44;8.00;99.90
52415;DHT22;38340;52.964;6.086;2024-03-02T02:12:10;8.00;99.90
52415;DHT22;38340;52.964;6.086;2024-03-02T02:14:36;8.00;99.90
52415;DHT22;38340;52.964;6.086;2024-03-02T02:17:02;8.00;99.90
52415;DHT22;38340;52.964;6.086;2024-03-02T02:19:28;8.00;99.90
52415;DHT22;38340;52.964;6.086;2024-03-02T02:21:55;8.00;99.90
52415;DHT22;38340;52.964;6.086;2024-03-02T02:24:21;8.00;99.90
52415;DHT22;38340;52.964;6.086;2024-03-02T02:26:46;7.90;99.90
52415;DHT22;38340;52.964;6.086;2024-03-02T02:29:12;7.90;99.90
52415;DHT22;38340;52.964;6.086;2024-03-02T02:31:38;7.90;99.90
52415;DHT22;38340;52.964;6.086;2024-03-02T02:34:05;7.90;99.90
52415;DHT22;38340;52.964;6.086;2024-03-02T02:36:34;7.90;99.90
52415;DHT22;38340;52.964;6.086;2024-03-02T02:39:03;8.00;99.90
52415;DHT22;38340;52.964;6.086;2024-03-02T02:41:30;8.00;99.90
52415;DHT22;38340;52.964;6.086;2024-03-02T02:43:56;7.90;99.90
52415;DHT22;38340;52.964;6.086;2024-03-02T02:46:22;7.90;99.90
52415;DHT22;38340;52.964;6.086;2024-03-02T02:48:47;8.00;99.90
52415;DHT22;38340;52.964;6.086;2024-03-02T02:51:13;8.00;99.90
52415;DHT22;38340;52.964;6.086;2024-03-02T02:53:39;7.90;99.90
52415;DHT22;38340;52.964;6.086;2024-03-02T02:56:09;7.90;99.90
52415;DHT22;38340;52.964;6.086;2024-03-02T02:58:35;7.90;99.90
52415;DHT22;38340;52.964;6.086;2024-03-02T03:01:01;7.90;99.90
52415;DHT22;38340;52.964;6.086;2024-03-02T03:03:26;7.90;99.90
52415;DHT22;38340;52.964;6.086;2024-03-02T03:05:52;7.90;99.90
52415;DHT22;38340;52.964;6.086;2024-03-02T03:08:18;7.90;99.90
52415;DHT22;38340;52.964;6.086;2024-03-02T03:10:44;7.90;99.90
52415;DHT22;38340;52.964;6.086;2024-03-02T03:13:10;7.90;99.90
52415;DHT22;38340;52.964;6.086;2024-03-02T03:15:36;7.90;99.90
52415;DHT22;38340;52.964;6.086;2024-03-02T03:18:05;7.90;99.90
52415;DHT22;38340;52.964;6.086;2024-03-02T03:20:31;7.90;99.90
52415;DHT22;38340;52.964;6.086;2024-03-02T03:22:57;7.90;99.90
52415;DHT22;38340;52.964;6.086;2024-03-02T03:25:23;7.90;99.90
52415;DHT22;38340;52.964;6.086;2024-03-02T03:27:49;7.80;99.90
52415;DHT22;38340;52.964;6.086;2024-03-02T03:30:15;7.80;99.90
52415;DHT22;38340;52.964;6.086;2024-03-02T03:32:40;7.90;99.90
52415;DHT22;38340;52.964;6.086;2024-03-02T03:35:06;7.80;99.90
52415;DHT22;38340;52.964;6.086;2024-03-02T03:37:32;7.90;99.90
52415;DHT22;38340;52.964;6.086;2024-03-02T03:40:02;7.90;99.90
52415;DHT22;38340;52.964;6.086;2024-03-02T03:42:28;7.90;99.90
52415;DHT22;38340;52.964;6.086;2024-03-02T03:44:54;7.90;99.90
52415;DHT22;38340;52.964;6.086;2024-03-02T03:47:20;7.90;99.90
52415;DHT22;38340;52.964;6.086;2024-03-02T03:49:45;7.90;99.90
52415;DHT22;38340;52.964;6.086;2024-03-02T03:52:11;7.80;99.90
52415;DHT22;38340;52.964;6.086;2024-03-02T03:54:37;7.90;99.90
52415;DHT22;38340;52.964;6.086;2024-03-02T03:57:04;7.80;99.90
52415;DHT22;38340;52.964;6.086;2024-03-02T03:59:30;7.80;99.90
52415;DHT22;38340;52.964;6.086;2024-03-02T04:01:56;7.80;99.90
52415;DHT22;38340;52.964;6.086;2024-03-02T04:04:21;7.80;99.90
52415;DHT22;38340;52.964;6.086;2024-03-02T04:06:47;7.80;99.90
52415;DHT22;38340;52.964;6.086;2024-03-02T04:09:13;7.80;99.90
52415;DHT22;38340;52.964;6.086;2024-03-02T04:11:39;7.90;99.90
52415;DHT22;38340;52.964;6.086;2024-03-02T04:14:05;7.80;99.90
52415;DHT22;38340;52.964;6.086;2024-03-02T04:16:31;7.90;99.90
52415;DHT22;38340;52.964;6.086;2024-03-02T04:18:57;7.90;99.90
52415;DHT22;38340;52.964;6.086;2024-03-02T04:21:23;8.00;99.90
52415;DHT22;38340;52.964;6.086;2024-03-02T04:23:49;7.90;99.90
52415;DHT22;38340;52.964;6.086;2024-03-02T04:26:14;7.90;99.90
52415;DHT22;38340;52.964;6.086;2024-03-02T04:28:45;7.90;99.90
52415;DHT22;38340;52.964;6.086;2024-03-02T04:31:10;7.80;99.90
52415;DHT22;38340;52.964;6.086;2024-03-02T04:33:36;7.80;99.90
52415;DHT22;38340;52.964;6.086;2024-03-02T04:36:02;7.80;99.90
52415;DHT22;38340;52.964;6.086;2024-03-02T04:38:27;7.70;99.90
52415;DHT22;38340;52.964;6.086;2024-03-02T04:40:54;7.70;99.90
52415;DHT22;38340;52.964;6.086;2024-03-02T04:43:20;7.70;99.90
52415;DHT22;38340;52.964;6.086;2024-03-02T04:45:45;7.70;99.90
52415;DHT22;38340;52.964;6.086;2024-03-02T04:48:11;7.70;99.90
52415;DHT22;38340;52.964;6.086;2024-03-02T04:50:37;7.70;99.90
52415;DHT22;38340;52.964;6.086;2024-03-02T04:53:02;7.70;99.90
52415;DHT22;38340;52.964;6.086;2024-03-02T04:55:28;7.60;99.90
52415;DHT22;38340;52.964;6.086;2024-03-02T04:57:54;7.60;99.90
52415;DHT22;38340;52.964;6.086;2024-03-02T05:00:22;7.50;99.90
52415;DHT22;38340;52.964;6.086;2024-03-02T05:02:48;7.40;99.90
52415;DHT22;38340;52.964;6.086;2024-03-02T05:05:14;7.30;99.90
52415;DHT22;38340;52.964;6.086;2024-03-02T05:07:42;7.20;99.90
52415;DHT22;38340;52.964;6.086;2024-03-02T05:10:09;7.20;99.90
52415;DHT22;38340;52.964;6.086;2024-03-02T05:12:35;7.10;99.90
52415;DHT22;38340;52.964;6.086;2024-03-02T05:15:01;7.00;99.90
52415;DHT22;38340;52.964;6.086;2024-03-02T05:17:27;6.90;99.90
52415;DHT22;38340;52.964;6.086;2024-03-02T05:19:53;6.80;99.90
52415;DHT22;38340;52.964;6.086;2024-03-02T05:22:18;6.70;99.90
52415;DHT22;38340;52.964;6.086;2024-03-02T05:24:44;6.70;99.90
52415;DHT22;38340;52.964;6.086;2024-03-02T05:27:10;6.60;99.90
52415;DHT22;38340;52.964;6.086;2024-03-02T05:29:35;6.60;99.90
52415;DHT22;38340;52.964;6.086;2024-03-02T05:32:01;6.50;99.90
52415;DHT22;38340;52.964;6.086;2024-03-02T05:34:28;6.50;99.90
52415;DHT22;38340;52.964;6.086;2024-03-02T05:36:54;6.40;99.90
52415;DHT22;38340;52.964;6.086;2024-03-02T05:39:20;6.40;99.90
52415;DHT22;38340;52.964;6.086;2024-03-02T05:41:46;6.40;99.90
52415;DHT22;38340;52.964;6.086;2024-03-02T05:44:14;6.30;99.90
52415;DHT22;38340;52.964;6.086;2024-03-02T05:46:41;6.30;99.90
52415;DHT22;38340;52.964;6.086;2024-03-02T05:49:07;6.30;99.90
52415;DHT22;38340;52.964;6.086;2024-03-02T05:51:33;6.20;99.90
52415;DHT22;38340;52.964;6.086;2024-03-02T05:53:59;6.10;99.90
52415;DHT22;38340;52.964;6.086;2024-03-02T05:56:24;6.10;99.90
52415;DHT22;38340;52.964;6.086;2024-03-02T05:58:50;6.10;99.90
52415;DHT22;38340;52.964;6.086;2024-03-02T06:01:19;6.00;99.90
52415;DHT22;38340;52.964;6.086;2024-03-02T06:03:45;6.00;99.90
52415;DHT22;38340;52.964;6.086;2024-03-02T06:06:10;6.00;99.90
52415;DHT22;38340;52.964;6.086;2024-03-02T06:08:36;6.00;99.90
52415;DHT22;38340;52.964;6.086;2024-03-02T06:11:02;6.00;99.90
52415;DHT22;38340;52.964;6.086;2024-03-02T06:13:28;5.90;99.90
52415;DHT22;38340;52.964;6.086;2024-03-02T06:15:53;5.90;99.90
52415;DHT22;38340;52.964;6.086;2024-03-02T06:18:19;5.90;99.90
52415;DHT22;38340;52.964;6.086;2024-03-02T06:20:44;5.90;99.90
52415;DHT22;38340;52.964;6.086;2024-03-02T06:23:10;5.80;99.90
52415;DHT22;38340;52.964;6.086;2024-03-02T06:25:36;5.80;99.90
52415;DHT22;38340;52.964;6.086;2024-03-02T06:28:01;5.70;99.90
52415;DHT22;38340;52.964;6.086;2024-03-02T06:30:27;5.70;99.90
52415;DHT22;38340;52.964;6.086;2024-03-02T06:32:53;5.70;99.90
52415;DHT22;38340;52.964;6.086;2024-03-02T06:35:19;5.70;99.90
52415;DHT22;38340;52.964;6.086;2024-03-02T06:37:45;5.60;99.90
52415;DHT22;38340;52.964;6.086;2024-03-02T06:40:10;5.60;99.90
52415;DHT22;38340;52.964;6.086;2024-03-02T06:42:36;5.60;99.90
52415;DHT22;38340;52.964;6.086;2024-03-02T06:45:02;5.60;99.90
52415;DHT22;38340;52.964;6.086;2024-03-02T06:47:28;5.70;99.90
52415;DHT22;38340;52.964;6.086;2024-03-02T06:49:54;5.70;99.90
52415;DHT22;38340;52.964;6.086;2024-03-02T06:52:20;5.80;99.90
52415;DHT22;38340;52.964;6.086;2024-03-02T06:54:46;5.80;99.90
52415;DHT22;38340;52.964;6.086;2024-03-02T06:57:12;5.90;99.90
52415;DHT22;38340;52.964;6.086;2024-03-02T06:59:37;5.90;99.90
52415;DHT22;38340;52.964;6.086;2024-03-02T07:02:03;5.90;99.90
52415;DHT22;38340;52.964;6.086;2024-03-02T07:04:29;5.90;99.90
52415;DHT22;38340;52.964;6.086;2024-03-02T07:06:55;5.90;99.90
52415;DHT22;38340;52.964;6.086;2024-03-02T07:09:20;5.90;99.90
52415;DHT22;38340;52.964;6.086;2024-03-02T07:11:49;6.00;99.90
52415;DHT22;38340;52.964;6.086;2024-03-02T07:14:15;6.00;99.90
52415;DHT22;38340;52.964;6.086;2024-03-02T07:16:40;6.00;99.90
52415;DHT22;38340;52.964;6.086;2024-03-02T07:19:08;6.00;99.90
52415;DHT22;38340;52.964;6.086;2024-03-02T07:21:34;6.10;99.90
52415;DHT22;38340;52.964;6.086;2024-03-02T07:24:00;6.10;99.90
52415;DHT22;38340;52.964;6.086;2024-03-02T07:26:29;6.10;99.90
52415;DHT22;38340;52.964;6.086;2024-03-02T07:28:56;6.10;99.90
52415;DHT22;38340;52.964;6.086;2024-03-02T07:31:22;6.20;99.90
52415;DHT22;38340;52.964;6.086;2024-03-02T07:33:48;6.20;99.90
52415;DHT22;38340;52.964;6.086;2024-03-02T07:36:14;6.30;99.90
52415;DHT22;38340;52.964;6.086;2024-03-02T07:38:40;6.30;99.90
52415;DHT22;38340;52.964;6.086;2024-03-02T07:41:07;6.30;99.90
52415;DHT22;38340;52.964;6.086;2024-03-02T07:43:33;6.30;99.90
52415;DHT22;38340;52.964;6.086;2024-03-02T07:45:59;6.40;99.90
52415;DHT22;38340;52.964;6.086;2024-03-02T07:48:25;6.50;99.90
52415;DHT22;38340;52.964;6.086;2024-03-02T07:50:51;6.50;99.90
52415;DHT22;38340;52.964;6.086;2024-03-02T07:53:16;6.60;99.90
52415;DHT22;38340;52.964;6.086;2024-03-02T07:55:42;6.60;99.90
52415;DHT22;38340;52.964;6.086;2024-03-02T07:58:08;6.80;99.90
52415;DHT22;38340;52.964;6.086;2024-03-02T08:00:34;6.80;99.90
52415;DHT22;38340;52.964;6.086;2024-03-02T08:03:01;6.90;99.90
52415;DHT22;38340;52.964;6.086;2024-03-02T08:05:27;6.90;99.90
52415;DHT22;38340;52.964;6.086;2024-03-02T08:07:53;6.90;99.90
52415;DHT22;38340;52.964;6.086;2024-03-02T08:10:18;7.00;99.90
52415;DHT22;38340;52.964;6.086;2024-03-02T08:12:45;7.10;99.90
52415;DHT22;38340;52.964;6.086;2024-03-02T08:15:11;7.20;99.90
52415;DHT22;38340;52.964;6.086;2024-03-02T08:17:39;7.20;99.90
52415;DHT22;38340;52.964;6.086;2024-03-02T08:20:11;7.20;99.90
52415;DHT22;38340;52.964;6.086;2024-03-02T08:22:40;7.30;99.90
52415;DHT22;38340;52.964;6.086;2024-03-02T08:25:06;7.30;99.90
52415;DHT22;38340;52.964;6.086;2024-03-02T08:27:33;7.40;99.90
52415;DHT22;38340;52.964;6.086;2024-03-02T08:29:59;7.50;99.90
52415;DHT22;38340;52.964;6.086;2024-03-02T08:32:24;7.60;99.90
52415;DHT22;38340;52.964;6.086;2024-03-02T08:34:50;7.70;99.90
52415;DHT22;38340;52.964;6.086;2024-03-02T08:37:16;7.80;99.90
52415;DHT22;38340;52.964;6.086;2024-03-02T08:39:42;7.90;99.90
52415;DHT22;38340;52.964;6.086;2024-03-02T08:42:08;7.90;99.90
52415;DHT22;38340;52.964;6.086;2024-03-02T08:44:33;7.90;99.90
52415;DHT22;38340;52.964;6.086;2024-03-02T08:46:59;7.90;99.90
52415;DHT22;38340;52.964;6.086;2024-03-02T08:49:25;8.10;99.90
52415;DHT22;38340;52.964;6.086;2024-03-02T08:51:51;8.10;99.90
52415;DHT22;38340;52.964;6.086;2024-03-02T08:54:22;8.10;99.90
52415;DHT22;38340;52.964;6.086;2024-03-02T08:56:52;8.10;99.90
52415;DHT22;38340;52.964;6.086;2024-03-02T08:59:17;8.10;99.90
52415;DHT22;38340;52.964;6.086;2024-03-02T09:01:43;8.00;99.90
52415;DHT22;38340;52.964;6.086;2024-03-02T09:04:10;8.00;99.90
52415;DHT22;38340;52.964;6.086;2024-03-02T09:06:36;8.00;99.90
52415;DHT22;38340;52.964;6.086;2024-03-02T09:09:01;8.00;99.90
52415;DHT22;38340;52.964;6.086;2024-03-02T09:11:28;8.00;99.90
52415;DHT22;38340;52.964;6.086;2024-03-02T09:13:54;8.00;99.90
52415;DHT22;38340;52.964;6.086;2024-03-02T09:16:21;8.10;99.90
52415;DHT22;38340;52.964;6.086;2024-03-02T09:18:48;8.20;99.90
52415;DHT22;38340;52.964;6.086;2024-03-02T09:21:14;8.30;99.90
52415;DHT22;38340;52.964;6.086;2024-03-02T09:23:40;8.40;99.90
52415;DHT22;38340;52.964;6.086;2024-03-02T09:26:06;8.50;99.90
52415;DHT22;38340;52.964;6.086;2024-03-02T09:28:33;8.60;99.90
52415;DHT22;38340;52.964;6.086;2024-03-02T09:31:00;8.70;99.90
52415;DHT22;38340;52.964;6.086;2024-03-02T09:33:26;8.80;99.90
52415;DHT22;38340;52.964;6.086;2024-03-02T09:35:52;8.80;99.90
52415;DHT22;38340;52.964;6.086;2024-03-02T09:38:17;8.90;99.90
52415;DHT22;38340;52.964;6.086;2024-03-02T09:40:43;8.90;99.90
52415;DHT22;38340;52.964;6.086;2024-03-02T09:43:09;9.00;99.90
52415;DHT22;38340;52.964;6.086;2024-03-02T09:45:36;9.00;99.90
52415;DHT22;38340;52.964;6.086;2024-03-02T09:48:01;9.00;99.90
52415;DHT22;38340;52.964;6.086;2024-03-02T09:50:27;9.00;99.90
52415;DHT22;38340;52.964;6.086;2024-03-02T09:52:53;9.00;99.90
52415;DHT22;38340;52.964;6.086;2024-03-02T09:55:20;9.10;99.90
52415;DHT22;38340;52.964;6.086;2024-03-02T09:57:46;9.30;99.90
52415;DHT22;38340;52.964;6.086;2024-03-02T10:00:14;9.40;99.90
52415;DHT22;38340;52.964;6.086;2024-03-02T10:02:43;9.50;99.90
52415;DHT22;38340;52.964;6.086;2024-03-02T10:05:09;9.50;99.90
52415;DHT22;38340;52.964;6.086;2024-03-02T10:07:35;9.60;99.90
52415;DHT22;38340;52.964;6.086;2024-03-02T10:10:13;9.60;99.90
52415;DHT22;38340;52.964;6.086;2024-03-02T10:12:39;9.70;99.90
52415;DHT22;38340;52.964;6.086;2024-03-02T10:15:05;9.80;99.90
52415;DHT22;38340;52.964;6.086;2024-03-02T10:17:31;9.90;99.90
52415;DHT22;38340;52.964;6.086;2024-03-02T10:19:57;9.90;99.90
52415;DHT22;38340;52.964;6.086;2024-03-02T10:22:23;10.00;99.90
52415;DHT22;38340;52.964;6.086;2024-03-02T10:24:49;10.00;99.90
52415;DHT22;38340;52.964;6.086;2024-03-02T10:27:17;10.00;99.90
52415;DHT22;38340;52.964;6.086;2024-03-02T10:29:46;10.20;99.90
52415;DHT22;38340;52.964;6.086;2024-03-02T10:32:12;10.30;99.90
52415;DHT22;38340;52.964;6.086;2024-03-02T10:34:40;10.30;99.90
52415;DHT22;38340;52.964;6.086;2024-03-02T10:37:06;10.30;99.90
52415;DHT22;38340;52.964;6.086;2024-03-02T10:39:36;10.40;99.90
52415;DHT22;38340;52.964;6.086;2024-03-02T10:42:05;10.40;99.90
52415;DHT22;38340;52.964;6.086;2024-03-02T10:44:32;10.50;99.90
52415;DHT22;38340;52.964;6.086;2024-03-02T10:47:05;10.50;99.90
52415;DHT22;38340;52.964;6.086;2024-03-02T10:49:32;10.50;99.90
52415;DHT22;38340;52.964;6.086;2024-03-02T10:52:01;10.50;99.90
52415;DHT22;38340;52.964;6.086;2024-03-02T10:54:29;10.50;99.90
52415;DHT22;38340;52.964;6.086;2024-03-02T10:57:01;10.60;99.90
52415;DHT22;38340;52.964;6.086;2024-03-02T10:59:35;10.70;99.90
52415;DHT22;38340;52.964;6.086;2024-03-02T11:02:03;10.70;99.90
52415;DHT22;38340;52.964;6.086;2024-03-02T11:04:31;10.80;99.90
52415;DHT22;38340;52.964;6.086;2024-03-02T11:09:35;10.90;99.90
52415;DHT22;38340;52.964;6.086;2024-03-02T11:12:44;10.90;99.90
52415;DHT22;38340;52.964;6.086;2024-03-02T11:15:17;10.80;99.90
52415;DHT22;38340;52.964;6.086;2024-03-02T11:17:45;10.90;99.90
52415;DHT22;38340;52.964;6.086;2024-03-02T11:20:11;11.00;99.90
52415;DHT22;38340;52.964;6.086;2024-03-02T11:22:38;11.00;99.90
52415;DHT22;38340;52.964;6.086;2024-03-02T11:25:04;11.00;99.90
52415;DHT22;38340;52.964;6.086;2024-03-02T11:33:05;11.00;99.90
52415;DHT22;38340;52.964;6.086;2024-03-02T11:35:44;11.00;99.90
52415;DHT22;38340;52.964;6.086;2024-03-02T11:38:13;11.00;99.90
52415;DHT22;38340;52.964;6.086;2024-03-02T11:40:39;11.10;99.90
52415;DHT22;38340;52.964;6.086;2024-03-02T11:43:06;11.00;99.90
52415;DHT22;38340;52.964;6.086;2024-03-02T11:45:33;11.10;99.90
52415;DHT22;38340;52.964;6.086;2024-03-02T11:48:01;11.00;99.90
52415;DHT22;38340;52.964;6.086;2024-03-02T11:52:56;11.00;99.90
52415;DHT22;38340;52.964;6.086;2024-03-02T11:55:25;11.00;99.90
52415;DHT22;38340;52.964;6.086;2024-03-02T11:57:52;11.00;99.90
52415;DHT22;38340;52.964;6.086;2024-03-02T12:00:19;11.10;99.90
52415;DHT22;38340;52.964;6.086;2024-03-02T12:03:03;11.10;99.90
52415;DHT22;38340;52.964;6.086;2024-03-02T12:05:30;11.20;99.90
52415;DHT22;38340;52.964;6.086;2024-03-02T12:08:04;11.20;99.90
52415;DHT22;38340;52.964;6.086;2024-03-02T12:10:31;11.10;99.90
52415;DHT22;38340;52.964;6.086;2024-03-02T12:13:02;11.10;99.90
52415;DHT22;38340;52.964;6.086;2024-03-02T12:15:36;11.10;99.90
52415;DHT22;38340;52.964;6.086;2024-03-02T12:18:02;11.10;99.90
52415;DHT22;38340;52.964;6.086;2024-03-02T12:20:30;11.10;99.90
52415;DHT22;38340;52.964;6.086;2024-03-02T12:23:01;11.10;99.90
52415;DHT22;38340;52.964;6.086;2024-03-02T12:25:28;11.10;99.90
52415;DHT22;38340;52.964;6.086;2024-03-02T12:27:56;11.10;99.90
52415;DHT22;38340;52.964;6.086;2024-03-02T12:30:23;11.10;99.90
52415;DHT22;38340;52.964;6.086;2024-03-02T12:32:49;11.10;99.90
52415;DHT22;38340;52.964;6.086;2024-03-02T12:35:15;11.10;99.90
52415;DHT22;38340;52.964;6.086;2024-03-02T12:37:45;11.20;99.90
52415;DHT22;38340;52.964;6.086;2024-03-02T12:40:12;11.20;99.90
52415;DHT22;38340;52.964;6.086;2024-03-02T12:42:41;11.30;99.90
52415;DHT22;38340;52.964;6.086;2024-03-02T12:45:08;11.40;99.90
52415;DHT22;38340;52.964;6.086;2024-03-02T12:47:38;11.50;99.90
52415;DHT22;38340;52.964;6.086;2024-03-02T12:50:04;11.50;99.90
52415;DHT22;38340;52.964;6.086;2024-03-02T12:52:31;11.50;99.90
52415;DHT22;38340;52.964;6.086;2024-03-02T12:55:04;11.50;99.90
52415;DHT22;38340;52.964;6.086;2024-03-02T12:57:31;11.60;99.90
52415;DHT22;38340;52.964;6.086;2024-03-02T13:00:03;11.70;99.90
52415;DHT22;38340;52.964;6.086;2024-03-02T13:02:35;11.70;99.90
52415;DHT22;38340;52.964;6.086;2024-03-02T13:05:01;11.80;99.90
52415;DHT22;38340;52.964;6.086;2024-03-02T13:07:28;11.70;99.90
52415;DHT22;38340;52.964;6.086;2024-03-02T13:09:55;11.80;99.90
52415;DHT22;38340;52.964;6.086;2024-03-02T13:12:23;11.80;99.90
52415;DHT22;38340;52.964;6.086;2024-03-02T13:14:52;11.80;99.90
52415;DHT22;38340;52.964;6.086;2024-03-02T13:17:19;11.80;99.90
52415;DHT22;38340;52.964;6.086;2024-03-02T13:19:58;11.80;99.90
52415;DHT22;38340;52.964;6.086;2024-03-02T13:22:25;11.80;99.90
52415;DHT22;38340;52.964;6.086;2024-03-02T13:24:51;11.80;99.90
52415;DHT22;38340;52.964;6.086;2024-03-02T13:27:20;11.90;99.90
52415;DHT22;38340;52.964;6.086;2024-03-02T13:29:47;11.80;99.90
52415;DHT22;38340;52.964;6.086;2024-03-02T13:32:16;11.80;99.90
52415;DHT22;38340;52.964;6.086;2024-03-02T13:34:42;11.70;99.90
52415;DHT22;38340;52.964;6.086;2024-03-02T13:37:09;11.70;99.90
52415;DHT22;38340;52.964;6.086;2024-03-02T13:39:35;11.80;99.90
52415;DHT22;38340;52.964;6.086;2024-03-02T13:42:09;11.80;99.90
52415;DHT22;38340;52.964;6.086;2024-03-02T13:44:36;11.90;99.90
52415;DHT22;38340;52.964;6.086;2024-03-02T13:47:03;11.90;99.90
52415;DHT22;38340;52.964;6.086;2024-03-02T13:49:29;11.90;99.90
52415;DHT22;38340;52.964;6.086;2024-03-02T13:52:06;11.90;99.90
52415;DHT22;38340;52.964;6.086;2024-03-02T13:54:46;11.90;99.90
52415;DHT22;38340;52.964;6.086;2024-03-02T13:57:12;11.90;99.90
52415;DHT22;38340;52.964;6.086;2024-03-02T13:59:39;11.90;99.90
52415;DHT22;38340;52.964;6.086;2024-03-02T14:02:05;11.90;99.90
52415;DHT22;38340;52.964;6.086;2024-03-02T14:04:32;11.90;99.90
52415;DHT22;38340;52.964;6.086;2024-03-02T14:06:59;11.90;99.90
52415;DHT22;38340;52.964;6.086;2024-03-02T14:09:25;11.90;99.90
52415;DHT22;38340;52.964;6.086;2024-03-02T14:11:51;11.90;99.90
52415;DHT22;38340;52.964;6.086;2024-03-02T14:14:17;12.00;99.90
52415;DHT22;38340;52.964;6.086;2024-03-02T14:16:43;12.00;99.90
52415;DHT22;38340;52.964;6.086;2024-03-02T14:19:13;12.10;99.90
52415;DHT22;38340;52.964;6.086;2024-03-02T14:21:39;12.20;99.90
52415;DHT22;38340;52.964;6.086;2024-03-02T14:24:05;12.20;99.90
52415;DHT22;38340;52.964;6.086;2024-03-02T14:26:35;12.30;99.90
52415;DHT22;38340;52.964;6.086;2024-03-02T14:29:02;12.40;99.90
52415;DHT22;38340;52.964;6.086;2024-03-02T14:31:28;12.40;99.90
52415;DHT22;38340;52.964;6.086;2024-03-02T14:33:54;12.40;99.90
52415;DHT22;38340;52.964;6.086;2024-03-02T14:36:20;12.40;99.90
52415;DHT22;38340;52.964;6.086;2024-03-02T14:38:46;12.50;99.90
52415;DHT22;38340;52.964;6.086;2024-03-02T14:41:12;12.60;99.90
52415;DHT22;38340;52.964;6.086;2024-03-02T14:43:38;12.70;99.90
52415;DHT22;38340;52.964;6.086;2024-03-02T14:46:04;12.70;99.90
52415;DHT22;38340;52.964;6.086;2024-03-02T14:48:30;12.70;99.90
52415;DHT22;38340;52.964;6.086;2024-03-02T14:50:55;12.70;99.90
52415;DHT22;38340;52.964;6.086;2024-03-02T14:53:21;12.70;99.90
52415;DHT22;38340;52.964;6.086;2024-03-02T14:55:47;12.70;99.90
52415;DHT22;38340;52.964;6.086;2024-03-02T14:58:13;12.60;99.90
52415;DHT22;38340;52.964;6.086;2024-03-02T15:00:39;12.60;99.90
52415;DHT22;38340;52.964;6.086;2024-03-02T15:03:05;12.50;99.90
52415;DHT22;38340;52.964;6.086;2024-03-02T15:05:34;12.50;99.90
52415;DHT22;38340;52.964;6.086;2024-03-02T15:08:00;12.40;99.90
52415;DHT22;38340;52.964;6.086;2024-03-02T15:10:28;12.40;99.90
52415;DHT22;38340;52.964;6.086;2024-03-02T15:12:53;12.30;99.90
52415;DHT22;38340;52.964;6.086;2024-03-02T15:15:19;12.30;99.90
52415;DHT22;38340;52.964;6.086;2024-03-02T15:17:45;12.20;99.90
52415;DHT22;38340;52.964;6.086;2024-03-02T15:20:11;12.20;99.90
52415;DHT22;38340;52.964;6.086;2024-03-02T15:22:36;12.10;99.90
52415;DHT22;38340;52.964;6.086;2024-03-02T15:25:02;12.10;99.90
52415;DHT22;38340;52.964;6.086;2024-03-02T15:27:28;12.10;99.90
52415;DHT22;38340;52.964;6.086;2024-03-02T15:29:54;12.00;99.90
52415;DHT22;38340;52.964;6.086;2024-03-02T15:32:22;12.00;99.90
52415;DHT22;38340;52.964;6.086;2024-03-02T15:34:48;12.00;99.90
52415;DHT22;38340;52.964;6.086;2024-03-02T15:37:14;11.90;99.90
52415;DHT22;38340;52.964;6.086;2024-03-02T15:39:40;11.80;99.90
52415;DHT22;38340;52.964;6.086;2024-03-02T15:42:06;11.80;99.90
52415;DHT22;38340;52.964;6.086;2024-03-02T15:44:31;11.70;99.90
52415;DHT22;38340;52.964;6.086;2024-03-02T15:46:58;11.70;99.90
52415;DHT22;38340;52.964;6.086;2024-03-02T15:49:24;11.70;99.90